Latest Weather Observations for Naracoorte

IDS60801

Issued at 10:31 am CDT Friday 30 January 2015 (issued every 30 minutes, with the page automatically refreshed every 10 minutes)

About weather observations | Map of weather stations | Latest weather observations for SA | Other Formats
Station Details ID: 026099 Name: NARACOORTE AERODROME Lat: -36.98 Lon: 140.73 Height: 49.72 m
Data from the previous 72 hours. | See also: Recent months at Naracoorte
Date/Time
CDT
Temp
°C
App
Temp
°C
Dew
Point
Rel
Hum
%
Delta-T
°C
Wind Press
QNH
hPa
Press
MSL
hPa
Rain
since 9 am
mm
Dir
 
Spd
km/h
Gust
km/h
Spd
kts
Gust
kts
30/10:30am 19.1 15.8 8.1 49 5.7 SSE 15 20 8 11 1018.1 1017.9 0.0
30/10:00am 19.2 15.9 9.7 54 5.0 SSE 17 28 9 15 1018.3 1018.1 0.0
30/09:30am 17.6 14.2 9.2 58 4.4 SE 17 22 9 12 1018.6 1018.4 0.0
30/09:00am 16.6 12.8 9.8 64 3.6 SE 20 26 11 14 1018.6 1018.4 0.0
30/08:30am 14.6 11.9 10.2 75 2.3 SSE 15 19 8 10 1018.8 1018.6 0.0
30/08:00am 11.9 8.6 9.5 85 1.2 SSE 17 19 9 10 1018.5 1018.3 0.0
30/07:30am 10.0 7.3 8.9 93 0.5 SSE 13 19 7 10 1018.2 1018.0 0.0
30/07:00am 8.2 5.1 7.4 95 0.4 S 13 15 7 8 1018.0 1017.8 0.0
30/06:30am 7.3 4.0 6.6 95 0.3 S 13 15 7 8 1018.0 1017.8 0.0
30/06:00am 7.7 4.2 7.0 95 0.3 SSE 15 17 8 9 1017.9 1017.7 0.0
30/05:30am 8.1 5.0 7.2 94 0.4 SSE 13 13 7 7 1017.5 1017.3 0.0
30/05:00am 8.6 5.9 7.5 93 0.5 SSE 11 13 6 7 1017.3 1017.1 0.0
30/04:30am 9.2 5.9 8.1 93 0.5 S 15 17 8 9 1017.2 1017.0 0.0
30/04:00am 10.1 6.6 8.7 91 0.7 S 17 17 9 9 1017.2 1017.0 0.0
30/03:30am 10.6 7.4 8.5 87 1.0 S 15 19 8 10 1017.4 1017.2 0.0
30/03:00am 12.3 8.9 9.3 82 1.5 SSE 17 22 9 12 1017.4 1017.2 0.0
30/02:30am 12.8 8.8 9.1 78 1.9 SSE 20 28 11 15 1017.3 1017.1 0.0
30/02:00am 13.2 9.4 8.9 75 2.2 SE 19 24 10 13 1017.5 1017.3 0.0
30/01:30am 13.4 9.3 8.7 73 2.4 SE 20 28 11 15 1017.5 1017.3 0.0
30/01:00am 13.9 9.0 8.5 70 2.7 SE 24 32 13 17 1017.6 1017.4 0.0
30/12:30am 14.4 9.1 8.4 67 3.0 SE 26 33 14 18 1017.8 1017.6 0.0
30/12:00am 14.7 9.6 7.7 63 3.5 SE 24 33 13 18 1018.0 1017.8 0.0
 
Date/Time
CDT
Temp
°C
App
Temp
°C
Dew
Point
Rel
Hum
%
Delta-T
°C
Wind Press
QNH
hPa
Press
MSL
hPa
Rain
since 9 am
mm
Dir
 
Spd
km/h
Gust
km/h
Spd
kts
Gust
kts
29/11:30pm 14.9 10.0 7.0 59 3.9 SE 22 32 12 17 1018.1 1017.9 0.0
29/11:00pm 15.1 10.6 6.1 55 4.3 SE 19 26 10 14 1018.3 1018.1 0.0
29/10:30pm 16.2 10.2 5.5 49 5.1 SE 26 33 14 18 1018.3 1018.1 0.0
29/10:00pm 16.5 11.5 4.5 45 5.6 SE 20 32 11 17 1018.3 1018.1 0.0
29/09:30pm 17.8 10.8 4.0 40 6.5 SE 30 35 16 19 1017.9 1017.7 0.0
29/09:00pm 18.6 11.5 3.6 37 7.0 SE 30 39 16 21 1017.5 1017.3 0.0
29/08:30pm 19.6 13.2 3.3 34 7.7 SE 26 37 14 20 1017.2 1017.0 0.0
29/08:00pm 21.4 14.7 3.6 31 8.6 SE 28 37 15 20 1016.5 1016.4 0.0
29/07:30pm 22.8 15.5 4.3 30 9.1 ESE 32 46 17 25 1016.2 1016.1 0.0
29/07:00pm 24.2 17.4 5.1 29 9.6 ESE 30 44 16 24 1015.8 1015.7 0.0
29/06:30pm 25.2 18.6 5.9 29 9.9 ESE 30 41 16 22 1015.5 1015.4 0.0
29/06:00pm 26.0 19.5 6.6 29 10.1 SE 30 39 16 21 1015.3 1015.2 0.0
29/05:30pm 26.4 19.4 5.9 27 10.6 SE 32 46 17 25 1015.4 1015.3 0.0
29/05:00pm 26.7 20.5 6.2 27 10.7 SE 28 43 15 23 1015.7 1015.6 0.0
29/04:30pm 26.9 20.2 5.8 26 10.9 SE 30 46 16 25 1015.9 1015.8 0.0
29/04:27pm 26.7 20.0 5.6 26 10.9 SE 30 46 16 25 1015.8 1015.7 0.0
29/04:00pm 26.9 20.6 5.8 26 10.9 SSE 28 39 15 21 1016.3 1016.2 0.0
29/03:34pm 26.5 20.2 5.5 26 10.8 SE 28 46 15 25 1016.5 1016.4 0.0
29/03:30pm 26.8 20.9 5.7 26 10.9 SE 26 46 14 25 1016.7 1016.6 0.0
29/03:12pm 27.6 22.1 7.5 28 10.8 SE 26 50 14 27 1016.9 1016.7 0.0
29/03:00pm 26.2 20.6 5.2 26 10.7 ESE 24 35 13 19 1017.1 1016.9 0.0
29/02:30pm 26.0 20.2 6.1 28 10.3 ESE 26 39 14 21 1017.7 1017.5 0.0
29/02:00pm 25.6 19.3 5.8 28 10.2 ESE 28 37 15 20 1018.0 1017.8 0.0
29/01:30pm 24.9 18.8 6.6 31 9.5 ESE 28 37 15 20 1018.4 1018.2 0.0
29/01:00pm 24.3 18.4 7.4 34 8.9 SE 28 39 15 21 1018.8 1018.6 0.0
29/12:30pm 23.7 18.7 8.2 37 8.2 ESE 24 39 13 21 1019.1 1018.9 0.0
29/12:18pm 24.0 18.2 8.0 36 8.5 SE 28 54 15 29 1019.1 1018.9 0.0
29/12:00pm 23.7 17.4 8.9 39 7.9 SE 32 39 17 21 1019.4 1019.2 0.0
29/11:30am 22.1 16.9 8.9 43 7.0 E 26 39 14 21 1019.8 1019.6 0.0
29/11:00am 22.1 16.3 7.9 40 7.4 E 28 37 15 20 1019.9 1019.7 0.0
29/10:30am 21.1 16.2 8.4 44 6.7 E 24 35 13 19 1020.1 1019.9 0.0
29/10:00am 19.6 13.8 8.0 47 6.0 ESE 28 37 15 20 1020.3 1020.1 0.0
29/09:30am 18.8 13.9 8.5 51 5.3 ESE 24 33 13 18 1020.5 1020.3 0.0
29/09:00am 18.0 12.4 8.8 55 4.8 ESE 28 37 15 20 1020.6 1020.4 0.0
29/08:30am 16.6 12.3 9.5 63 3.7 SE 22 33 12 18 1020.5 1020.3 0.0
29/08:00am 14.5 10.8 9.5 72 2.6 SE 19 24 10 13 1020.4 1020.2 0.0
29/07:30am 13.2 8.9 9.3 77 2.0 SE 22 28 12 15 1020.1 1019.9 0.0
29/07:00am 10.8 7.3 8.7 87 1.0 SSE 17 19 9 10 1019.8 1019.6 0.0
29/06:30am 9.8 6.0 7.6 86 1.0 SSE 17 19 9 10 1019.6 1019.4 0.0
29/06:00am 11.6 7.1 8.5 81 1.5 SE 22 26 12 14 1019.2 1019.0 0.0
29/05:30am 11.7 7.5 8.4 80 1.6 SE 20 24 11 13 1019.0 1018.8 0.0
29/05:00am 11.8 7.6 8.3 79 1.7 SE 20 28 11 15 1018.7 1018.5 0.0
29/04:30am 12.1 7.6 8.4 78 1.8 SE 22 30 12 16 1018.6 1018.4 0.0
29/04:00am 12.1 7.6 8.4 78 1.8 SE 22 28 12 15 1018.6 1018.4 0.0
29/03:30am 12.3 8.7 8.4 77 1.9 SE 17 24 9 13 1018.6 1018.4 0.0
29/03:00am 12.7 8.5 8.4 75 2.1 SSE 20 26 11 14 1018.6 1018.4 0.0
29/02:30am 13.0 9.5 8.7 75 2.2 SE 17 22 9 12 1018.8 1018.6 0.0
29/02:00am 12.7 9.6 8.8 77 2.0 SE 15 20 8 11 1018.8 1018.6 0.0
29/01:30am 11.5 8.1 7.8 78 1.8 S 15 17 8 9 1019.0 1018.8 0.0
29/01:00am 14.4 10.5 8.8 69 2.8 SE 19 22 10 12 1019.1 1018.9 0.0
29/12:30am 15.2 10.8 8.9 66 3.2 SE 22 30 12 16 1019.0 1018.8 0.0
29/12:00am 15.7 10.9 8.7 63 3.6 SE 24 32 13 17 1018.9 1018.7 0.0
 
Date/Time
CDT
Temp
°C
App
Temp
°C
Dew
Point
Rel
Hum
%
Delta-T
°C
Wind Press
QNH
hPa
Press
MSL
hPa
Rain
since 9 am
mm
Dir
 
Spd
km/h
Gust
km/h
Spd
kts
Gust
kts
28/11:30pm 16.2 11.8 8.9 62 3.7 SE 22 30 12 16 1018.8 1018.6 0.0
28/11:00pm 16.9 11.8 9.1 60 4.0 SE 26 35 14 19 1018.8 1018.6 0.0
28/10:30pm 17.6 12.5 9.2 58 4.4 SE 26 35 14 19 1018.5 1018.3 0.0
28/10:00pm 18.4 14.1 9.2 55 4.8 SE 22 33 12 18 1018.5 1018.3 0.0
28/09:30pm 19.4 14.8 9.6 53 5.2 SE 24 35 13 19 1018.0 1017.8 0.0
28/09:00pm 20.4 14.1 9.6 50 5.8 SE 33 44 18 24 1017.6 1017.4 0.0
28/08:30pm 21.3 15.6 9.9 48 6.2 SE 30 41 16 22 1017.1 1016.9 0.0
28/08:00pm 22.7 16.3 9.5 43 7.1 SE 33 44 18 24 1016.4 1016.3 0.0
28/07:30pm 24.2 17.9 9.0 38 8.2 SE 32 43 17 23 1016.2 1016.1 0.0
28/07:00pm 25.1 18.7 8.6 35 8.9 SE 32 43 17 23 1015.7 1015.6 0.0
28/06:30pm 25.7 19.0 8.2 33 9.4 SE 33 44 18 24 1015.4 1015.3 0.0
28/06:00pm 26.8 20.3 8.3 31 10.0 SE 32 43 17 23 1015.3 1015.2 0.0
28/05:30pm 27.0 20.7 7.5 29 10.4 SE 30 39 16 21 1015.2 1015.1 0.0
28/05:00pm 27.1 20.8 7.5 29 10.5 SE 30 43 16 23 1015.5 1015.4 0.0
28/04:30pm 27.5 20.9 7.9 29 10.6 SE 32 44 17 24 1015.4 1015.3 0.0
28/04:01pm 26.3 20.3 6.9 29 10.2 SE 28 46 15 25 1015.5 1015.4 0.0
28/04:00pm 26.4 20.0 6.9 29 10.3 SE 30 46 16 25 1015.5 1015.4 0.0
28/03:30pm 26.0 19.1 6.6 29 10.1 SE 32 50 17 27 1015.8 1015.7 0.0
28/03:16pm 26.4 19.7 7.4 30 10.1 SE 32 52 17 28 1015.8 1015.7 0.0
28/03:00pm 26.2 19.6 7.7 31 9.9 SE 32 43 17 23 1016.0 1015.9 0.0
28/02:50pm 26.6 20.6 7.1 29 10.3 SE 28 46 15 25 1016.1 1016.0 0.0
28/02:30pm 25.6 20.6 8.1 33 9.4 SE 24 39 13 21 1016.5 1016.4 0.0
28/02:00pm 25.7 19.5 7.8 32 9.6 SE 30 41 16 22 1016.9 1016.7 0.0
28/01:30pm 25.2 18.8 8.7 35 8.9 SSE 32 46 17 25 1017.3 1017.1 0.0
28/01:16pm 24.3 18.4 7.4 34 8.9 SE 28 46 15 25 1017.2 1017.0 0.0
28/01:00pm 23.6 17.0 7.7 36 8.4 SE 32 46 17 25 1017.4 1017.2 0.0
28/12:31pm 23.5 17.6 9.1 40 7.8 SE 30 48 16 26 1017.8 1017.6 0.0
28/12:30pm 23.1 16.8 8.8 40 7.6 SE 32 48 17 26 1017.8 1017.6 0.0
28/12:00pm 22.8 16.7 8.1 39 7.7 SE 30 43 16 23 1018.1 1017.9 0.0
28/11:30am 21.3 14.9 8.6 44 6.7 SE 32 46 17 25 1018.4 1018.2 0.0
28/11:00am 21.0 15.0 8.6 45 6.5 SE 30 43 16 23 1018.6 1018.4 0.0
28/10:30am 20.1 13.1 8.4 47 6.1 SE 35 52 19 28 1018.8 1018.6 0.0
28/10:25am 20.0 13.3 8.0 46 6.2 SE 33 52 18 28 1018.7 1018.5 0.0
28/10:00am 19.4 12.7 7.2 45 6.2 SE 32 44 17 24 1018.9 1018.7 0.0
28/09:30am 17.8 10.5 7.2 50 5.3 SE 35 46 19 25 1018.9 1018.7 0.0
28/09:00am 16.9 9.7 7.8 55 4.6 SE 35 44 19 24 1018.9 1018.7 0.0
28/08:30am 15.9 9.4 8.2 60 3.9 SE 32 41 17 22 1018.7 1018.5 0.0
28/08:29am 16.0 9.5 8.2 60 4.0 SE 32 41 17 22 1018.7 1018.5 0.0
28/08:00am 14.2 10.9 9.4 73 2.5 SSE 17 22 9 12 1018.5 1018.3 0.0
28/07:30am 10.5 8.4 8.3 86 1.1 SSE 9 13 5 7 1018.3 1018.1 0.0
28/07:00am 6.6 3.9 5.7 94 0.4 SSE 9 9 5 5 1017.9 1017.7 0.0
28/06:30am 5.9 3.7 5.2 95 0.3 SSE 6 7 3 4 1017.7 1017.5 0.0
28/06:00am 5.9 2.7 5.0 94 0.4 SSE 11 13 6 7 1017.6 1017.4 0.0
28/05:30am 6.3 3.1 5.3 93 0.4 SSE 11 13 6 7 1017.5 1017.3 0.0
28/05:00am 7.1 3.4 6.2 94 0.4 SSE 15 15 8 8 1017.4 1017.2 0.0
28/04:30am 7.2 3.8 6.1 93 0.5 SSE 13 15 7 8 1017.5 1017.3 0.0
28/04:00am 7.5 4.2 6.3 92 0.5 S 13 15 7 8 1017.5 1017.3 0.0
28/03:30am 8.7 4.8 7.3 91 0.7 SSE 17 19 9 10 1017.6 1017.4 0.0
28/03:00am 8.6 5.5 7.2 91 0.7 SSE 13 15 7 8 1017.9 1017.7 0.0
28/02:30am 9.1 6.1 7.9 92 0.6 SSE 13 17 7 9 1018.1 1017.9 0.0
28/02:00am 8.9 5.8 7.2 89 0.8 SSE 13 17 7 9 1018.3 1018.1 0.0
28/01:30am 8.9 5.9 7.5 91 0.7 SSE 13 17 7 9 1018.6 1018.4 0.0
28/01:00am 8.2 4.9 6.2 87 0.9 SSE 13 15 7 8 1018.7 1018.5 0.0
28/12:30am 9.2 6.0 6.8 85 1.1 S 13 15 7 8 1018.9 1018.7 0.0
28/12:00am 9.6 6.0 6.7 82 1.4 SSE 15 17 8 9 1018.9 1018.7 0.0
 
Date/Time
CDT
Temp
°C
App
Temp
°C
Dew
Point
Rel
Hum
%
Delta-T
°C
Wind Press
QNH
hPa
Press
MSL
hPa
Rain
since 9 am
mm
Dir
 
Spd
km/h
Gust
km/h
Spd
kts
Gust
kts
27/11:30pm 11.8 8.8 7.5 75 2.1 SSE 13 17 7 9 1018.7 1018.5 0.0
27/11:00pm 11.2 8.0 6.9 75 2.0 SSE 13 17 7 9 1018.9 1018.7 0.0
27/10:30pm 12.2 8.0 7.5 73 2.3 SSE 19 20 10 11 1019.1 1018.9 0.0
27/10:00pm 14.0 9.1 7.1 63 3.4 SSE 22 28 12 15 1018.7 1018.5 0.0
27/09:30pm 14.1 9.6 6.9 62 3.5 SSE 20 24 11 13 1018.6 1018.4 0.0
27/09:00pm 15.1 10.2 6.9 58 4.0 SSE 22 30 12 16 1018.3 1018.1 0.0
27/08:30pm 15.7 9.7 7.2 57 4.2 SSE 28 37 15 20 1017.9 1017.7 0.0
27/08:00pm 16.2 9.2 6.9 54 4.6 SSE 33 43 18 23 1017.7 1017.5 0.0
27/07:30pm 17.2 10.0 7.5 53 4.9 SSE 35 43 19 23 1017.5 1017.3 0.0
27/07:00pm 17.7 10.6 8.0 53 4.9 SSE 35 46 19 25 1017.0 1016.8 0.0
27/06:30pm 18.4 10.5 7.8 50 5.4 SSE 39 50 21 27 1016.5 1016.4 0.0
27/06:02pm 20.3 12.5 6.6 41 6.9 SSE 37 56 20 30 1016.1 1016.0 0.0
27/06:00pm 20.4 12.6 6.7 41 6.9 SSE 37 52 20 28 1016.1 1016.0 0.0
27/05:30pm 19.4 10.9 6.8 44 6.3 SSE 41 52 22 28 1016.2 1016.1 0.0
27/05:00pm 21.2 13.9 7.1 40 7.2 SSE 35 46 19 25 1016.2 1016.1 0.0
27/04:38pm 21.3 14.3 6.8 39 7.4 SSE 33 52 18 28 1016.1 1016.0 0.0
27/04:30pm 20.2 12.4 6.5 41 6.9 SSE 37 52 20 28 1016.1 1016.0 0.0
27/04:00pm 21.2 13.7 6.3 38 7.5 SSE 35 52 19 28 1016.1 1016.0 0.0
27/03:46pm 22.0 15.2 6.7 37 7.8 S 32 50 17 27 1016.0 1015.9 0.0
27/03:30pm 21.2 13.7 6.3 38 7.5 SSE 35 50 19 27 1016.4 1016.3 0.0
27/03:00pm 20.1 13.0 6.4 41 6.9 SSE 33 43 18 23 1016.7 1016.6 0.0
27/02:30pm 20.1 13.1 6.1 40 7.0 SSE 32 43 17 23 1017.1 1016.9 0.0
27/02:00pm 20.8 14.2 6.0 38 7.4 SSE 30 46 16 25 1017.2 1017.0 0.0
27/01:30pm 20.2 14.3 5.8 39 7.1 SSE 26 37 14 20 1017.3 1017.1 0.0
27/01:00pm 19.8 13.5 5.5 39 7.0 SSE 28 39 15 21 1017.7 1017.5 0.0
27/12:30pm 18.9 12.1 7.0 46 6.0 SSE 32 43 17 23 1018.0 1017.8 0.0
27/12:00pm 19.3 12.9 6.8 44 6.3 SSE 30 37 16 20 1018.3 1018.1 0.0
27/11:30am 17.4 12.2 7.2 51 5.1 SSE 24 35 13 19 1018.6 1018.4 0.0
27/11:00am 17.5 11.0 6.4 48 5.5 SSE 30 37 16 20 1018.6 1018.4 0.0

Other Formats:

Comma delimited format used in spreadsheet applications
http://www.bom.gov.au/fwo/IDS60801/IDS60801.94820.axf

JavaScript Object Notation format (JSON) in row-major order
http://www.bom.gov.au/fwo/IDS60801/IDS60801.94820.json